CheckWX is a tool to help pilots better visualize weather data.  It is not intended as a substitute for an official pre-flight weather briefing.

12:06:57 UTC

KEDE METAR
Northeastern Regional Airport
Edenton, North Carolina, USA
Current

12 mins ago

KEDE 071155Z AUTO 00000KT 10SM CLR 27/26 A3009 RMK AO2 T02740259 10274 20240
Observed
Jul-7 @ 11:55 UTC
Visibility
10 SM
Flight Rules
VFR
Cloud Levels
  • Clear skies
Temperature
27°C / 81°F
Dewpoint
26°C / 79°F
Humidity
94%
Altimeter
30.09" Hg
Pressure
1018.92 hPa
Previous

32 mins ago

KEDE 071135Z AUTO 00000KT 10SM CLR 27/26 A3008 RMK AO2 T02650258
Observed
Jul-7 @ 11:35 UTC
Visibility
10 SM
Flight Rules
VFR
Cloud Levels
  • Clear skies
Temperature
26°C / 79°F
Dewpoint
26°C / 79°F
Humidity
100%
Altimeter
30.08" Hg
Pressure
1018.62 hPa
Previous

52 mins ago

KEDE 071115Z AUTO 00000KT 10SM CLR 26/25 A3009 RMK AO2 T02550251
Observed
Jul-7 @ 11:15 UTC
Visibility
10 SM
Flight Rules
VFR
Cloud Levels
  • Clear skies
Temperature
26°C / 79°F
Dewpoint
25°C / 77°F
Humidity
94%
Altimeter
30.09" Hg
Pressure
1018.92 hPa